Time;durP1;ratioP1;P1;durP2;ratioP2;P2;SDS_P1;SDS_P2;PMS_P1;PMS_P2;Temp;Humidity;BMP_temperature;BMP_pressure;BME280_temperature;BME280_humidity;BME280_pressure;Samples;Min_cycle;Max_cycle;Signal;HPM_P1;HPM_P2
2023/12/15 00:01:00;;;;;;;17.33;9.88;;;3.90;1.00;;;;;;5088554;28;20206;-88
2023/12/15 00:03:26;;;;;;;13.20;9.45;;;3.80;1.00;;;;;;5096910;28;20199;-89
2023/12/15 00:05:54;;;;;;;15.80;11.52;;;3.90;1.00;;;;;;5082301;28;20701;-88
2023/12/15 00:08:21;;;;;;;17.52;9.80;;;3.80;1.00;;;;;;5082521;28;20317;-88
2023/12/15 00:10:48;;;;;;;16.15;11.23;;;3.90;1.00;;;;;;5097042;28;20195;-87
2023/12/15 00:13:14;;;;;;;14.93;9.55;;;3.80;1.00;;;;;;5099367;28;20242;-87
2023/12/15 00:15:43;;;;;;;14.27;9.90;;;3.80;1.00;;;;;;5098794;28;20213;-87
2023/12/15 00:18:10;;;;;;;17.85;10.35;;;3.10;99.90;;;;;;5099475;28;20193;-87
2023/12/15 00:20:37;;;;;;;16.73;10.10;;;3.70;1.00;;;;;;5099590;28;20198;-86
2023/12/15 00:23:03;;;;;;;15.60;9.60;;;3.80;15.00;;;;;;5099333;28;20242;-88
2023/12/15 00:25:30;;;;;;;14.93;10.23;;;3.80;1.00;;;;;;5094054;28;20198;-87
2023/12/15 00:27:57;;;;;;;15.38;11.10;;;3.70;99.90;;;;;;5082120;28;20210;-87
2023/12/15 00:30:24;;;;;;;13.73;9.60;;;3.80;50.30;;;;;;5081169;28;20301;-88
2023/12/15 00:32:53;;;;;;;16.38;9.68;;;3.80;1.00;;;;;;5091853;28;20266;-87
2023/12/15 00:35:20;;;;;;;17.85;9.73;;;3.70;99.90;;;;;;5092989;28;20644;-88
2023/12/15 00:37:47;;;;;;;12.18;8.98;;;;;;;;;;5085625;28;20288;-87
2023/12/15 00:40:15;;;;;;;14.23;9.45;;;3.80;88.00;;;;;;5082792;28;20233;-88
2023/12/15 00:42:42;;;;;;;15.15;9.35;;;3.70;42.00;;;;;;5094824;28;20296;-87
2023/12/15 00:45:10;;;;;;;13.85;10.00;;;3.70;72.40;;;;;;5096965;28;20294;-87
2023/12/15 00:47:37;;;;;;;14.13;9.18;;;3.60;99.90;;;;;;5095621;28;20202;-87
2023/12/15 00:50:06;;;;;;;20.08;10.73;;;3.60;48.60;;;;;;5094342;28;20243;-88
2023/12/15 00:52:33;;;;;;;14.27;9.10;;;3.50;1.00;;;;;;5090493;28;20225;-88
2023/12/15 00:55:00;;;;;;;17.73;11.65;;;3.50;99.90;;;;;;5090992;28;20206;-88
2023/12/15 00:57:27;;;;;;;17.08;10.95;;;3.40;1.00;;;;;;5088320;28;20270;-89
2023/12/15 00:59:53;;;;;;;16.30;11.38;;;3.40;3.40;;;;;;5082353;28;20222;-88
2023/12/15 01:02:20;;;;;;;16.25;11.85;;;3.30;62.00;;;;;;5091852;28;20257;-87
2023/12/15 01:04:47;;;;;;;17.63;11.15;;;3.30;69.20;;;;;;5088943;28;20245;-87
2023/12/15 01:07:16;;;;;;;19.50;10.73;;;3.40;73.60;;;;;;5079074;28;20207;-87
2023/12/15 01:09:43;;;;;;;15.80;9.15;;;3.80;72.40;;;;;;5077903;28;20624;-88
2023/12/15 01:12:09;;;;;;;10.73;8.95;;;3.40;51.20;;;;;;5078121;28;20279;-89
2023/12/15 01:14:36;;;;;;;15.55;10.20;;;3.40;25.90;;;;;;5080078;28;20202;-88
2023/12/15 01:17:03;;;;;;;17.25;10.38;;;3.50;24.00;;;;;;5079189;28;20297;-88
2023/12/15 01:19:30;;;;;;;13.85;9.73;;;3.40;99.90;;;;;;5078133;28;20218;-88
2023/12/15 01:21:57;;;;;;;13.77;8.70;;;3.20;99.90;;;;;;5079314;28;20312;-88
2023/12/15 01:24:25;;;;;;;19.10;10.00;;;3.40;20.50;;;;;;5079878;28;20202;-88
2023/12/15 01:26:52;;;;;;;13.80;9.15;;;3.40;19.90;;;;;;5080799;28;20202;-88
2023/12/15 01:29:19;;;;;;;14.18;9.88;;;3.40;1.00;;;;;;5080000;28;20222;-88
2023/12/15 01:31:46;;;;;;;17.50;9.88;;;3.50;14.70;;;;;;5079196;28;20285;-88
2023/12/15 01:34:13;;;;;;;15.02;9.38;;;3.50;1.00;;;;;;5079212;28;20222;-86
2023/12/15 01:36:40;;;;;;;15.05;8.75;;;3.50;12.70;;;;;;5078871;28;20229;-87
2023/12/15 01:39:07;;;;;;;14.18;9.60;;;3.50;18.80;;;;;;5084176;28;20242;-87
2023/12/15 01:41:35;;;;;;;13.32;8.93;;;3.50;1.00;;;;;;5087837;28;20270;-87
2023/12/15 01:44:02;;;;;;;15.85;11.13;;;3.50;1.00;;;;;;5087523;28;20225;-86
2023/12/15 01:46:29;;;;;;;14.70;9.38;;;3.30;99.90;;;;;;5082410;28;20206;-86
2023/12/15 01:48:56;;;;;;;11.45;9.30;;;3.50;95.20;;;;;;5079121;28;20242;-87
2023/12/15 01:51:22;;;;;;;15.18;8.98;;;3.50;95.40;;;;;;5078048;28;20202;-88
2023/12/15 01:53:49;;;;;;;12.23;9.02;;;3.50;48.70;;;;;;5086476;28;20182;-87
2023/12/15 01:56:16;;;;;;;11.10;7.30;;;3.50;15.10;;;;;;5097678;28;20210;-87
2023/12/15 01:58:44;;;;;;;15.77;9.32;;;3.50;99.90;;;;;;5092336;28;20281;-88
2023/12/15 02:01:11;;;;;;;12.55;9.27;;;3.50;99.90;;;;;;5064343;28;20654;-87
2023/12/15 02:03:38;;;;;;;14.98;9.20;;;3.60;99.90;;;;;;5077800;28;20212;-87
2023/12/15 02:06:05;;;;;;;18.75;10.23;;;3.60;99.90;;;;;;5077757;28;20293;-87
2023/12/15 02:08:32;;;;;;;13.63;9.75;;;3.50;99.90;;;;;;5079076;28;20309;-88
2023/12/15 02:11:00;;;;;;;14.00;9.35;;;3.40;99.90;;;;;;5083041;28;20594;-87
2023/12/15 02:13:26;;;;;;;12.93;9.15;;;3.40;99.90;;;;;;5081496;28;20323;-88
2023/12/15 02:15:55;;;;;;;14.05;9.32;;;3.30;99.90;;;;;;5077650;28;20214;-88
2023/12/15 02:18:22;;;;;;;13.52;9.25;;;3.30;99.90;;;;;;5079815;28;20691;-88
2023/12/15 02:20:49;;;;;;;12.90;9.35;;;3.20;99.90;;;;;;5080081;28;20206;-87
2023/12/15 02:23:17;;;;;;;13.27;10.32;;;3.20;99.90;;;;;;5079033;28;20205;-87
2023/12/15 02:25:44;;;;;;;12.40;8.52;;;3.10;99.90;;;;;;5078859;28;20289;-88
2023/12/15 02:28:11;;;;;;;13.75;10.20;;;3.20;99.90;;;;;;5081382;28;20198;-87
2023/12/15 02:30:37;;;;;;;12.85;9.18;;;3.20;99.90;;;;;;5083455;28;20309;-87
2023/12/15 02:33:04;;;;;;;13.10;8.80;;;3.00;99.90;;;;;;5086602;28;20224;-87
2023/12/15 02:35:31;;;;;;;9.75;7.60;;;3.00;99.90;;;;;;5065391;28;20207;-87
2023/12/15 02:37:59;;;;;;;12.48;8.77;;;2.90;99.90;;;;;;5082474;28;20293;-87
2023/12/15 02:40:28;;;;;;;12.55;8.07;;;3.00;99.90;;;;;;5098276;22;20230;-84
2023/12/15 02:42:54;;;;;;;15.07;8.23;;;2.90;99.90;;;;;;5062159;28;20270;-84
2023/12/15 02:45:21;;;;;;;12.57;9.30;;;3.00;99.90;;;;;;5062533;28;20203;-85
2023/12/15 02:47:48;;;;;;;30.58;27.75;;;2.90;99.90;;;;;;5066737;28;20195;-84
2023/12/15 02:50:15;;;;;;;10.02;8.07;;;2.90;99.90;;;;;;5081621;28;20226;-85
2023/12/15 02:52:42;;;;;;;12.35;8.07;;;2.90;99.90;;;;;;5098241;28;20250;-85
2023/12/15 02:55:11;;;;;;;14.57;8.93;;;2.90;99.90;;;;;;5099582;28;20225;-84
2023/12/15 02:57:39;;;;;;;13.45;8.65;;;2.90;99.90;;;;;;5100121;28;20220;-85
2023/12/15 03:00:07;;;;;;;12.63;8.80;;;2.70;99.90;;;;;;5100073;28;20206;-85
2023/12/15 03:02:34;;;;;;;14.15;8.57;;;2.80;99.90;;;;;;5099731;28;20213;-86
2023/12/15 03:05:01;;;;;;;11.98;8.07;;;2.80;99.90;;;;;;5090475;28;20213;-85
2023/12/15 03:07:28;;;;;;;10.88;6.90;;;2.70;99.90;;;;;;5085700;28;20210;-85
2023/12/15 03:09:55;;;;;;;12.85;9.00;;;2.60;1.00;;;;;;5086195;28;20223;-85
2023/12/15 03:12:22;;;;;;;18.90;17.00;;;2.60;99.90;;;;;;5086865;28;20198;-86
2023/12/15 03:14:52;;;;;;;9.98;7.47;;;2.60;1.00;;;;;;5091545;28;20226;-85
2023/12/15 03:17:19;;;;;;;12.40;8.27;;;2.40;1.00;;;;;;5099186;28;20213;-85
2023/12/15 03:19:46;;;;;;;12.73;8.13;;;2.40;1.00;;;;;;5099313;28;20198;-85
2023/12/15 03:22:13;;;;;;;13.43;8.15;;;2.40;1.00;;;;;;5096575;28;20212;-85
2023/12/15 03:24:40;;;;;;;15.15;8.85;;;4.90;1.00;;;;;;5095716;28;20220;-86
2023/12/15 03:27:06;;;;;;;13.65;8.98;;;2.20;1.00;;;;;;5089618;28;20234;-86
2023/12/15 03:29:33;;;;;;;11.52;8.93;;;2.30;1.00;;;;;;5086419;28;20278;-86
2023/12/15 03:32:01;;;;;;;10.90;7.13;;;2.30;1.00;;;;;;5085904;28;20605;-86
2023/12/15 03:34:28;;;;;;;12.88;9.43;;;2.40;1.00;;;;;;5084963;28;20204;-86
2023/12/15 03:36:55;;;;;;;12.55;9.20;;;2.40;1.00;;;;;;5087219;28;20299;-86
2023/12/15 03:39:22;;;;;;;17.98;9.38;;;2.30;1.00;;;;;;5087092;28;20232;-86
2023/12/15 03:41:49;;;;;;;13.25;8.50;;;2.20;1.00;;;;;;5087380;28;20253;-86
2023/12/15 03:44:15;;;;;;;18.70;9.80;;;1.80;99.90;;;;;;5086908;28;20556;-86
2023/12/15 03:46:42;;;;;;;12.18;9.05;;;2.40;7.00;;;;;;5085028;28;20202;-86
2023/12/15 03:49:10;;;;;;;13.93;9.00;;;2.10;39.20;;;;;;5085194;28;20203;-86
2023/12/15 03:51:37;;;;;;;13.00;7.88;;;2.00;32.00;;;;;;5085290;28;20773;-86
2023/12/15 03:54:04;;;;;;;11.85;9.45;;;2.00;25.50;;;;;;5083957;28;20206;-86
2023/12/15 03:56:32;;;;;;;12.70;9.82;;;1.80;99.90;;;;;;5083335;28;20293;-86
2023/12/15 03:59:00;;;;;;;15.77;8.90;;;2.10;91.00;;;;;;5083025;28;20205;-86
2023/12/15 04:01:29;;;;;;;13.93;8.38;;;2.00;99.20;;;;;;5083102;28;20703;-86
2023/12/15 04:03:57;;;;;;;12.35;8.98;;;2.00;99.90;;;;;;5083315;28;20209;-86
2023/12/15 04:06:25;;;;;;;13.93;8.38;;;1.90;99.90;;;;;;5081628;28;20206;-86
2023/12/15 04:08:52;;;;;;;13.65;8.90;;;1.90;99.90;;;;;;5082634;28;20270;-86
2023/12/15 04:11:19;;;;;;;11.95;8.32;;;1.90;99.90;;;;;;5081811;28;20260;-86
2023/12/15 04:13:46;;;;;;;15.63;9.57;;;1.90;99.90;;;;;;5081692;28;20304;-86
2023/12/15 04:16:13;;;;;;;15.13;10.13;;;1.90;99.90;;;;;;5087631;28;20658;-86
2023/12/15 04:18:40;;;;;;;13.30;9.25;;;1.90;99.90;;;;;;5080789;28;20202;-85
2023/12/15 04:21:07;;;;;;;14.82;10.15;;;1.90;99.90;;;;;;5080367;28;20250;-87
2023/12/15 04:23:35;;;;;;;14.05;8.77;;;3.30;99.90;;;;;;5083478;28;20237;-85
2023/12/15 04:26:02;;;;;;;19.33;10.45;;;2.00;99.90;;;;;;5082771;28;20323;-85
2023/12/15 04:28:29;;;;;;;15.38;9.45;;;1.80;99.90;;;;;;5083691;28;20206;-85
2023/12/15 04:30:56;;;;;;;15.10;10.20;;;1.90;99.90;;;;;;5083768;28;20254;-85
2023/12/15 04:33:23;;;;;;;13.27;9.07;;;2.00;99.90;;;;;;5083544;28;20206;-88
2023/12/15 04:35:49;;;;;;;15.55;10.82;;;1.90;99.90;;;;;;5084317;28;20290;-85
2023/12/15 04:38:16;;;;;;;15.32;8.82;;;1.90;99.90;;;;;;5083159;28;20297;-86
2023/12/15 04:40:44;;;;;;;13.50;8.10;;;2.00;99.90;;;;;;5083259;28;20289;-85
2023/12/15 04:43:11;;;;;;;10.50;8.05;;;2.10;99.90;;;;;;5082820;28;20274;-86
2023/12/15 04:45:39;;;;;;;21.02;11.18;;;3.50;99.90;;;;;;5088388;28;20202;-85
2023/12/15 04:48:06;;;;;;;15.77;9.85;;;2.30;99.90;;;;;;5085933;28;20796;-86
2023/12/15 04:50:33;;;;;;;14.40;8.63;;;2.20;99.90;;;;;;5084196;28;20289;-86
2023/12/15 04:52:59;;;;;;;18.45;11.35;;;1.70;99.90;;;;;;5084956;28;20198;-85
2023/12/15 04:55:26;;;;;;;18.70;11.55;;;2.10;99.90;;;;;;5095698;28;20235;-86
2023/12/15 04:57:54;;;;;;;18.52;10.77;;;1.90;99.90;;;;;;5098382;28;20202;-85
2023/12/15 05:00:22;;;;;;;12.35;9.27;;;1.80;99.90;;;;;;5098270;28;20281;-85
2023/12/15 05:02:49;;;;;;;14.60;9.77;;;1.80;99.90;;;;;;5097407;28;20202;-86
2023/12/15 05:05:16;;;;;;;15.73;9.43;;;2.30;99.90;;;;;;5085443;28;20217;-86
2023/12/15 05:07:43;;;;;;;15.52;9.25;;;1.90;99.90;;;;;;5084483;28;20266;-86
2023/12/15 05:10:10;;;;;;;13.82;8.30;;;1.90;99.90;;;;;;5080320;28;20275;-85
2023/12/15 05:12:37;;;;;;;17.95;9.63;;;1.90;99.90;;;;;;5084845;28;20237;-85
2023/12/15 05:15:06;;;;;;;15.50;8.88;;;1.90;99.90;;;;;;5087284;28;20249;-85
2023/12/15 05:17:33;;;;;;;14.75;9.77;;;1.80;99.90;;;;;;5085227;28;20263;-85
2023/12/15 05:20:02;;;;;;;14.57;9.77;;;1.70;1.00;;;;;;5088341;28;20226;-85
2023/12/15 05:22:29;;;;;;;15.80;10.35;;;1.80;99.90;;;;;;5094026;28;20198;-86
2023/12/15 05:24:56;;;;;;;14.70;9.75;;;1.90;99.90;;;;;;5085666;28;20212;-86
2023/12/15 05:27:24;;;;;;;20.08;11.65;;;1.90;99.90;;;;;;5087554;28;20199;-86
2023/12/15 05:29:50;;;;;;;16.45;9.73;;;1.50;99.90;;;;;;5085118;28;20198;-86
2023/12/15 05:32:19;;;;;;;16.25;9.65;;;1.70;99.90;;;;;;5083678;28;20206;-86
2023/12/15 05:34:46;;;;;;;15.52;8.90;;;1.80;99.90;;;;;;5084019;28;20236;-86
2023/12/15 05:37:13;;;;;;;22.77;10.45;;;1.80;99.90;;;;;;5091500;28;20210;-86
2023/12/15 05:39:44;;;;;;;13.45;8.75;;;1.90;99.90;;;;;;5098158;28;20197;-85
2023/12/15 05:42:11;;;;;;;14.82;9.73;;;1.70;1.00;;;;;;5088703;28;20214;-86
2023/12/15 05:44:39;;;;;;;19.88;9.85;;;1.80;99.90;;;;;;5083928;28;20289;-86
2023/12/15 05:47:06;;;;;;;20.13;10.50;;;1.90;99.90;;;;;;5084591;28;20646;-86
2023/12/15 05:49:34;;;;;;;23.20;12.07;;;2.00;99.90;;;;;;5091898;28;20194;-86
2023/12/15 05:52:01;;;;;;;15.70;9.00;;;1.80;1.00;;;;;;5080233;28;20290;-86
2023/12/15 05:54:28;;;;;;;21.85;11.88;;;2.00;99.90;;;;;;5093664;28;20232;-86
2023/12/15 05:56:55;;;;;;;21.05;11.00;;;2.00;99.90;;;;;;5094493;28;20202;-86
2023/12/15 05:59:22;;;;;;;20.75;10.77;;;2.00;99.90;;;;;;5089341;28;20206;-86
2023/12/15 06:01:49;;;;;;;15.38;10.13;;;1.90;1.00;;;;;;5089118;28;20269;-86
2023/12/15 06:04:16;;;;;;;19.58;10.20;;;1.90;99.90;;;;;;5101670;28;20387;-84
2023/12/15 06:06:44;;;;;;;18.10;11.10;;;2.20;1.00;;;;;;5101646;28;20194;-84
2023/12/15 06:09:11;;;;;;;21.00;11.90;;;2.30;99.90;;;;;;5101594;28;20251;-84
2023/12/15 06:11:40;;;;;;;18.35;10.75;;;2.10;99.90;;;;;;5101015;28;20240;-86
2023/12/15 06:14:07;;;;;;;21.77;10.10;;;2.20;99.90;;;;;;5100951;28;20206;-86
2023/12/15 06:16:34;;;;;;;18.17;11.00;;;2.20;99.90;;;;;;5096550;28;20222;-86
2023/12/15 06:19:01;;;;;;;18.92;11.80;;;2.60;1.00;;;;;;5090610;28;20212;-85
2023/12/15 06:21:30;;;;;;;21.10;12.35;;;2.30;99.90;;;;;;5086523;28;20272;-85
2023/12/15 06:23:58;;;;;;;18.10;9.85;;;2.40;99.90;;;;;;5086728;28;20206;-85
2023/12/15 06:26:26;;;;;;;25.95;12.55;;;2.30;99.90;;;;;;5086197;28;20289;-85
2023/12/15 06:28:54;;;;;;;24.35;12.60;;;2.30;1.00;;;;;;5085567;28;20205;-86
2023/12/15 06:31:21;;;;;;;21.80;11.43;;;2.40;1.00;;;;;;5086091;28;20309;-85
2023/12/15 06:33:47;;;;;;;26.63;12.15;;;2.40;99.90;;;;;;5086384;28;20266;-85
2023/12/15 06:36:14;;;;;;;18.63;12.15;;;2.40;99.90;;;;;;5086288;28;20222;-86
2023/12/15 06:38:43;;;;;;;24.70;12.18;;;2.30;99.90;;;;;;5090227;28;20217;-87
2023/12/15 06:41:11;;;;;;;21.52;13.18;;;2.60;99.90;;;;;;5092575;28;20627;-85
2023/12/15 06:43:40;;;;;;;21.60;11.85;;;2.20;99.90;;;;;;5090925;28;20202;-85
2023/12/15 06:46:07;;;;;;;21.35;12.70;;;2.30;99.90;;;;;;5091138;28;20654;-86
2023/12/15 06:48:35;;;;;;;27.80;14.68;;;2.30;99.90;;;;;;5087298;28;20209;-85
2023/12/15 06:51:02;;;;;;;25.58;12.27;;;2.40;99.90;;;;;;5087220;28;20229;-87
2023/12/15 06:53:29;;;;;;;25.55;13.30;;;2.40;99.90;;;;;;5085615;28;20222;-86
2023/12/15 06:55:56;;;;;;;24.23;12.40;;;2.40;99.90;;;;;;5085777;28;20393;-86
2023/12/15 06:58:24;;;;;;;22.80;13.57;;;2.20;1.00;;;;;;5084054;28;20584;-86
2023/12/15 07:00:53;;;;;;;26.13;14.10;;;2.40;99.90;;;;;;5091567;28;20318;-86
2023/12/15 07:03:20;;;;;;;23.67;13.30;;;2.50;99.90;;;;;;5097890;28;20226;-87
2023/12/15 07:05:47;;;;;;;22.80;14.15;;;2.50;99.90;;;;;;5093740;28;20273;-86
2023/12/15 07:08:13;;;;;;;24.90;13.48;;;2.60;99.90;;;;;;5087130;28;20202;-86
2023/12/15 07:10:40;;;;;;;20.73;11.57;;;2.60;99.90;;;;;;5085055;28;20238;-86
2023/12/15 07:13:08;;;;;;;22.55;13.38;;;2.30;99.90;;;;;;5084732;28;20213;-86
2023/12/15 07:15:36;;;;;;;27.55;14.20;;;2.50;99.90;;;;;;5084489;28;20232;-86
2023/12/15 07:18:03;;;;;;;25.35;12.88;;;2.60;99.90;;;;;;5086329;28;20221;-86
2023/12/15 07:20:30;;;;;;;34.30;13.93;;;2.60;99.90;;;;;;5089497;28;20220;-85
2023/12/15 07:22:57;;;;;;;24.80;12.88;;;2.60;99.90;;;;;;5095236;28;20210;-86
2023/12/15 07:25:25;;;;;;;27.35;13.40;;;2.60;99.90;;;;;;5094128;28;20206;-86
2023/12/15 07:27:53;;;;;;;25.58;13.80;;;2.60;99.90;;;;;;5087308;28;20210;-86
2023/12/15 07:30:20;;;;;;;22.20;12.32;;;2.60;99.90;;;;;;5087154;28;20222;-86
2023/12/15 07:32:48;;;;;;;22.63;14.00;;;2.50;99.90;;;;;;5091345;28;20571;-86
2023/12/15 07:35:15;;;;;;;19.80;13.25;;;2.20;99.90;;;;;;5089876;28;20203;-87
2023/12/15 07:37:42;;;;;;;21.50;13.77;;;2.60;99.90;;;;;;5087712;28;20269;-86
2023/12/15 07:40:10;;;;;;;34.55;14.50;;;2.80;99.90;;;;;;5086709;28;20229;-85
2023/12/15 07:42:37;;;;;;;19.58;13.25;;;2.60;99.90;;;;;;5091639;28;20194;-85
2023/12/15 07:45:05;;;;;;;29.85;13.30;;;2.60;99.90;;;;;;5094261;28;20194;-85
2023/12/15 07:47:32;;;;;;;27.77;15.05;;;;;;;;;;5095364;28;20212;-86
2023/12/15 07:50:13;;;;;;;24.92;13.05;;;2.60;99.90;;;;;;5088672;28;20224;-86
2023/12/15 07:52:46;;;;;;;23.08;13.57;;;;;;;;;;5087943;28;20232;-86
2023/12/15 07:55:14;;;;;;;24.85;15.35;;;;;;;;;;5087800;28;20655;-86
2023/12/15 07:57:46;;;;;;;23.58;13.93;;;;;;;;;;5088038;28;20210;-86
2023/12/15 08:00:21;;;;;;;27.58;13.60;;;;;;;;;;5086405;28;20551;-86
2023/12/15 08:02:49;;;;;;;30.33;15.23;;;;;;;;;;5090780;28;20182;-86
2023/12/15 08:05:20;;;;;;;38.33;14.00;;;2.60;99.90;;;;;;5099086;28;20203;-86
2023/12/15 08:08:11;;;;;;;23.52;13.45;;;2.70;99.90;;;;;;5089548;28;20183;-86
2023/12/15 08:10:41;;;;;;;65.05;47.53;;;;;;;;;;5086159;28;20230;-86
2023/12/15 08:13:12;;;;;;;26.95;14.73;;;;;;;;;;5088017;28;20206;-87
2023/12/15 08:16:06;;;;;;;26.67;15.82;;;2.70;99.90;;;;;;5087943;28;20215;-86
2023/12/15 08:18:43;;;;;;;33.15;17.33;;;2.70;99.90;;;;;;5054591;28;20207;-87
2023/12/15 08:21:11;;;;;;;25.98;14.35;;;2.70;99.90;;;;;;5091030;28;20238;-85
2023/12/15 08:23:41;;;;;;;26.23;14.27;;;2.60;99.90;;;;;;5087084;28;20194;-86
2023/12/15 08:26:20;;;;;;;28.98;14.20;;;2.70;99.90;;;;;;5089101;28;20217;-85
2023/12/15 08:28:49;;;;;;;25.40;13.50;;;;;;;;;;5094891;28;20178;-87
2023/12/15 08:31:37;;;;;;;31.35;15.93;;;2.70;99.90;;;;;;5095343;28;20214;-87
2023/12/15 08:34:12;;;;;;;32.33;15.80;;;;;;;;;;5090801;28;20201;-88
2023/12/15 08:36:46;;;;;;;33.25;15.90;;;;;;;;;;5082781;28;20205;-88
2023/12/15 08:41:59;;;;;;;27.25;13.82;;;2.80;99.90;;;;;;5083229;22;20243;-87
2023/12/15 08:44:26;;;;;;;43.67;16.35;;;2.70;99.90;;;;;;5059245;28;20207;-89
2023/12/15 08:46:53;;;;;;;44.45;19.15;;;2.70;99.90;;;;;;5058890;28;20202;-88
2023/12/15 08:49:20;;;;;;;33.47;18.50;;;2.70;99.90;;;;;;5060692;28;20230;-89
2023/12/15 08:51:49;;;;;;;40.42;18.80;;;2.80;99.90;;;;;;5072099;28;20230;-88
2023/12/15 08:54:16;;;;;;;35.45;17.20;;;2.80;99.90;;;;;;5080510;28;20264;-88
2023/12/15 08:56:43;;;;;;;33.72;16.83;;;2.80;99.90;;;;;;5098007;28;20249;-89
2023/12/15 08:59:10;;;;;;;31.83;17.50;;;2.80;99.90;;;;;;5097902;28;20261;-88
2023/12/15 09:01:37;;;;;;;42.53;18.45;;;2.80;99.90;;;;;;5094024;28;20226;-88
2023/12/15 09:04:04;;;;;;;36.92;21.48;;;2.80;99.90;;;;;;5083863;28;20205;-87
2023/12/15 09:06:30;;;;;;;47.17;21.20;;;2.90;99.90;;;;;;5085259;28;20202;-87
2023/12/15 09:08:59;;;;;;;32.90;17.55;;;2.90;99.90;;;;;;5082576;28;20202;-88
2023/12/15 09:11:26;;;;;;;39.45;18.38;;;3.00;99.90;;;;;;5078914;28;20230;-88
2023/12/15 09:13:53;;;;;;;50.83;26.40;;;3.10;99.90;;;;;;5082412;28;20293;-88
2023/12/15 09:16:19;;;;;;;32.28;18.92;;;3.20;99.90;;;;;;5086470;28;20225;-89
2023/12/15 09:18:46;;;;;;;34.97;17.55;;;3.10;99.90;;;;;;5090841;28;20209;-88
2023/12/15 09:21:13;;;;;;;31.52;16.48;;;3.10;99.90;;;;;;5091338;28;20357;-89
2023/12/15 09:23:40;;;;;;;30.40;17.30;;;3.10;57.70;;;;;;5082730;28;20234;-89
2023/12/15 09:26:08;;;;;;;29.40;15.98;;;3.40;29.00;;;;;;5079527;28;20237;-90
2023/12/15 09:28:35;;;;;;;33.42;17.63;;;3.20;25.20;;;;;;5077267;28;20236;-88
2023/12/15 09:31:02;;;;;;;35.50;16.83;;;3.20;15.20;;;;;;5089576;28;20323;-88
2023/12/15 09:33:29;;;;;;;29.50;16.98;;;3.50;90.90;;;;;;5092200;28;20344;-88
2023/12/15 09:35:56;;;;;;;32.78;17.13;;;3.30;99.90;;;;;;5091903;28;20228;-87
2023/12/15 09:38:23;;;;;;;32.45;16.30;;;3.30;1.00;;;;;;5093121;28;20198;-88
2023/12/15 09:40:50;;;;;;;31.45;15.52;;;3.40;1.00;;;;;;5082654;28;20230;-88
2023/12/15 09:43:18;;;;;;;37.97;16.13;;;3.50;1.00;;;;;;5079753;28;20232;-88
2023/12/15 09:45:46;;;;;;;32.42;16.63;;;3.60;1.00;;;;;;5078753;28;20198;-88
2023/12/15 09:48:16;;;;;;;35.45;20.73;;;3.80;33.20;;;;;;5094606;28;20249;-89
2023/12/15 09:50:48;;;;;;;37.92;27.10;;;3.70;1.00;;;;;;5092560;28;20595;-89
2023/12/15 09:53:16;;;;;;;28.45;16.33;;;3.40;1.00;;;;;;5076836;28;20230;-89
2023/12/15 09:55:43;;;;;;;23.90;13.60;;;3.60;1.00;;;;;;5077550;28;20232;-89
2023/12/15 09:58:10;;;;;;;29.77;16.02;;;3.90;1.00;;;;;;5076678;28;20202;-89
2023/12/15 10:00:39;;;;;;;26.67;15.30;;;3.50;1.00;;;;;;5076865;28;20286;-89
2023/12/15 10:03:06;;;;;;;28.35;15.27;;;3.70;1.00;;;;;;5077742;28;20206;-89
2023/12/15 10:05:33;;;;;;;24.17;14.30;;;3.80;1.00;;;;;;5077293;28;20209;-88
2023/12/15 10:07:59;;;;;;;25.52;16.15;;;4.30;1.00;;;;;;5077059;28;20202;-88
2023/12/15 10:10:27;;;;;;;31.50;15.40;;;;;;;;;;5077121;28;20218;-89
2023/12/15 10:12:55;;;;;;;32.47;16.83;;;3.90;1.00;;;;;;5087691;28;20228;-88
2023/12/15 10:15:23;;;;;;;28.40;16.23;;;4.00;1.00;;;;;;5077250;28;20210;-88
2023/12/15 10:17:51;;;;;;;28.27;17.35;;;4.10;1.00;;;;;;5076920;28;20228;-88
2023/12/15 10:20:19;;;;;;;31.58;16.95;;;4.20;1.00;;;;;;5076198;28;20725;-90
2023/12/15 10:22:46;;;;;;;34.58;16.63;;;5.40;99.90;;;;;;5077281;28;20717;-89
2023/12/15 10:25:17;;;;;;;33.33;17.17;;;4.20;99.90;;;;;;5081256;28;20270;-88
2023/12/15 10:27:44;;;;;;;30.00;16.35;;;4.40;99.90;;;;;;5080373;28;20202;-88
2023/12/15 10:30:12;;;;;;;30.67;18.40;;;4.50;99.90;;;;;;5077173;28;20657;-87
2023/12/15 10:32:40;;;;;;;27.45;14.90;;;4.30;99.90;;;;;;5080509;28;20226;-88
2023/12/15 10:35:09;;;;;;;27.40;15.10;;;4.30;99.90;;;;;;5087318;28;20206;-88
2023/12/15 10:37:36;;;;;;;40.92;25.05;;;4.20;99.90;;;;;;5089900;28;20210;-88
2023/12/15 10:40:04;;;;;;;30.63;17.88;;;4.30;99.90;;;;;;5086895;28;20286;-87
2023/12/15 10:42:31;;;;;;;35.40;23.27;;;4.30;99.90;;;;;;5082814;28;20295;-89
2023/12/15 10:44:59;;;;;;;35.88;20.27;;;4.20;99.90;;;;;;5081473;28;20281;-90
2023/12/15 10:47:27;;;;;;;34.22;17.73;;;4.40;99.90;;;;;;5081438;28;20209;-90
2023/12/15 10:49:55;;;;;;;34.67;17.63;;;4.30;99.90;;;;;;5086461;28;20236;-90
2023/12/15 10:52:23;;;;;;;25.42;15.35;;;4.30;99.90;;;;;;5096426;28;20230;-89
2023/12/15 10:54:50;;;;;;;29.63;16.10;;;4.30;99.90;;;;;;5098978;28;20225;-90
2023/12/15 10:57:17;;;;;;;28.25;15.52;;;4.40;99.90;;;;;;5094153;28;20190;-89
2023/12/15 10:59:45;;;;;;;33.88;16.08;;;4.30;99.90;;;;;;5100312;28;20197;-88
2023/12/15 11:02:14;;;;;;;33.33;16.20;;;4.60;99.90;;;;;;5090821;28;20214;-88
2023/12/15 11:04:41;;;;;;;29.13;16.42;;;4.40;99.90;;;;;;5082225;28;20228;-89
2023/12/15 11:07:10;;;;;;;25.83;16.30;;;4.50;99.90;;;;;;5079644;28;20607;-89
2023/12/15 11:09:39;;;;;;;35.00;17.30;;;4.10;99.90;;;;;;5080468;28;20203;-89
2023/12/15 11:12:22;;;;;;;29.27;15.35;;;4.30;99.90;;;;;;5087485;28;20252;-89
2023/12/15 11:14:53;;;;;;;28.52;15.55;;;4.30;99.90;;;;;;5063496;28;20206;-89
2023/12/15 11:17:20;;;;;;;34.33;16.88;;;4.30;99.90;;;;;;5080447;28;20719;-89
2023/12/15 11:19:50;;;;;;;30.92;17.33;;;4.30;99.90;;;;;;5095221;28;20234;-89
2023/12/15 11:22:18;;;;;;;25.92;14.52;;;4.40;99.90;;;;;;5083006;28;20228;-88
2023/12/15 11:24:47;;;;;;;22.30;14.20;;;;;;;;;;5082413;28;20208;-89
2023/12/15 11:27:14;;;;;;;23.75;15.57;;;4.50;99.90;;;;;;5087007;28;20210;-88
2023/12/15 11:29:41;;;;;;;29.52;16.70;;;4.20;1.00;;;;;;5087720;28;20245;-88
2023/12/15 11:32:30;;;;;;;27.45;16.42;;;4.30;1.00;;;;;;5079778;28;20226;-88
2023/12/15 11:34:58;;;;;;;26.52;16.88;;;4.40;99.90;;;;;;5079336;28;20267;-90
2023/12/15 11:37:26;;;;;;;30.95;17.30;;;4.30;1.00;;;;;;5079712;28;20270;-89
2023/12/15 11:39:55;;;;;;;26.75;15.85;;;4.80;1.00;;;;;;5081056;28;20209;-88
2023/12/15 11:42:23;;;;;;;26.13;15.65;;;4.40;1.00;;;;;;5079257;28;20226;-89
2023/12/15 11:44:50;;;;;;;30.98;16.17;;;4.50;1.00;;;;;;5079307;28;20198;-89
2023/12/15 11:47:17;;;;;;;30.38;15.68;;;4.30;1.00;;;;;;5081164;28;20210;-88
2023/12/15 11:49:44;;;;;;;31.20;17.33;;;4.30;1.00;;;;;;5080270;28;20240;-89
2023/12/15 11:52:12;;;;;;;32.70;15.68;;;4.30;1.00;;;;;;5080939;28;20284;-88
2023/12/15 11:54:39;;;;;;;29.10;17.50;;;4.20;99.90;;;;;;5080927;28;20292;-88
2023/12/15 11:57:08;;;;;;;32.13;17.38;;;;;;;;;;5091190;28;20787;-87
2023/12/15 11:59:36;;;;;;;32.45;18.10;;;4.50;99.90;;;;;;5093172;28;20250;-88
2023/12/15 12:02:04;;;;;;;42.22;17.35;;;4.30;99.90;;;;;;5083448;28;20234;-87
2023/12/15 12:04:32;;;;;;;34.88;18.70;;;4.20;99.90;;;;;;5080772;28;20207;-88
2023/12/15 12:06:59;;;;;;;32.53;16.20;;;4.20;99.90;;;;;;5079707;28;20292;-87
2023/12/15 12:09:26;;;;;;;33.40;17.50;;;4.40;99.90;;;;;;5081246;28;20212;-87
2023/12/15 12:11:55;;;;;;;44.67;17.33;;;4.10;99.90;;;;;;5098905;28;20202;-88
2023/12/15 12:14:27;;;;;;;37.25;17.17;;;4.10;99.90;;;;;;5088314;28;20212;-88
2023/12/15 12:16:54;;;;;;;34.08;18.45;;;4.20;99.90;;;;;;5077994;28;20197;-88
2023/12/15 12:19:22;;;;;;;38.40;18.90;;;4.20;99.90;;;;;;5091605;28;20270;-88
2023/12/15 12:21:52;;;;;;;32.85;17.17;;;4.20;99.90;;;;;;5091861;28;20222;-88
2023/12/15 12:24:20;;;;;;;41.00;20.45;;;4.20;99.90;;;;;;5091260;28;20187;-88
2023/12/15 12:26:47;;;;;;;43.33;20.60;;;4.30;99.90;;;;;;5080540;28;20621;-88
2023/12/15 12:29:14;;;;;;;47.58;18.63;;;4.30;99.90;;;;;;5080200;28;20573;-88
2023/12/15 12:31:43;;;;;;;36.33;19.33;;;4.30;99.90;;;;;;5079539;28;20226;-88
2023/12/15 12:34:09;;;;;;;48.08;21.98;;;4.40;99.90;;;;;;5078897;28;20316;-88
2023/12/15 12:36:36;;;;;;;42.88;19.88;;;4.20;99.90;;;;;;5080889;28;20270;-87
2023/12/15 12:39:06;;;;;;;46.65;19.65;;;4.40;99.90;;;;;;5082063;28;20206;-87
2023/12/15 12:41:34;;;;;;;32.15;16.42;;;4.10;99.90;;;;;;5081895;28;20262;-87
2023/12/15 12:44:00;;;;;;;38.25;20.38;;;5.90;99.90;;;;;;5084948;28;20194;-87
2023/12/15 12:46:27;;;;;;;45.60;21.88;;;4.40;99.90;;;;;;5089663;28;20221;-86
2023/12/15 12:48:56;;;;;;;47.58;21.95;;;4.40;99.90;;;;;;5091714;28;20207;-86
2023/12/15 12:51:23;;;;;;;42.25;20.55;;;4.40;99.90;;;;;;5087389;28;20276;-87